sensor_id;sensor_type;location;lat;lon;timestamp;temperature;humidity
42097;DHT22;27754;45.414;11.084;2022-09-09T00:04:01;21.90;80.50
42097;DHT22;27754;45.414;11.084;2022-09-09T00:07:13;21.80;79.90
42097;DHT22;27754;45.414;11.084;2022-09-09T00:09:45;21.90;79.90
42097;DHT22;27754;45.414;11.084;2022-09-09T00:14:56;21.80;80.10
42097;DHT22;27754;45.414;11.084;2022-09-09T00:17:44;21.80;80.20
42097;DHT22;27754;45.414;11.084;2022-09-09T00:20:24;21.80;80.40
42097;DHT22;27754;45.414;11.084;2022-09-09T00:23:17;21.80;80.80
42097;DHT22;27754;45.414;11.084;2022-09-09T00:28:39;21.80;81.90
42097;DHT22;27754;45.414;11.084;2022-09-09T00:31:13;21.80;82.00
42097;DHT22;27754;45.414;11.084;2022-09-09T00:33:43;21.80;82.20
42097;DHT22;27754;45.414;11.084;2022-09-09T00:36:16;21.80;82.10
42097;DHT22;27754;45.414;11.084;2022-09-09T00:38:51;21.80;81.70
42097;DHT22;27754;45.414;11.084;2022-09-09T00:41:44;21.80;81.30
42097;DHT22;27754;45.414;11.084;2022-09-09T00:44:30;21.80;80.40
42097;DHT22;27754;45.414;11.084;2022-09-09T00:50:35;21.80;79.80
42097;DHT22;27754;45.414;11.084;2022-09-09T00:53:18;21.80;80.10
42097;DHT22;27754;45.414;11.084;2022-09-09T00:56:02;21.80;80.10
42097;DHT22;27754;45.414;11.084;2022-09-09T00:58:35;21.60;80.30
42097;DHT22;27754;45.414;11.084;2022-09-09T01:01:09;21.60;80.40
42097;DHT22;27754;45.414;11.084;2022-09-09T01:03:55;21.60;80.50
42097;DHT22;27754;45.414;11.084;2022-09-09T01:06:33;21.60;80.80
42097;DHT22;27754;45.414;11.084;2022-09-09T01:12:15;21.40;80.50
42097;DHT22;27754;45.414;11.084;2022-09-09T01:14:49;21.40;80.70
42097;DHT22;27754;45.414;11.084;2022-09-09T01:17:35;21.40;80.70
42097;DHT22;27754;45.414;11.084;2022-09-09T01:28:13;21.00;80.70
42097;DHT22;27754;45.414;11.084;2022-09-09T01:30:42;20.90;80.90
42097;DHT22;27754;45.414;11.084;2022-09-09T01:33:15;20.90;81.10
42097;DHT22;27754;45.414;11.084;2022-09-09T01:38:19;20.90;81.00
42097;DHT22;27754;45.414;11.084;2022-09-09T01:40:48;20.90;81.10
42097;DHT22;27754;45.414;11.084;2022-09-09T01:43:15;20.80;81.40
42097;DHT22;27754;45.414;11.084;2022-09-09T01:45:43;20.80;82.10
42097;DHT22;27754;45.414;11.084;2022-09-09T01:48:11;20.80;82.40
42097;DHT22;27754;45.414;11.084;2022-09-09T01:50:44;20.90;82.10
42097;DHT22;27754;45.414;11.084;2022-09-09T01:53:12;20.90;81.80
42097;DHT22;27754;45.414;11.084;2022-09-09T01:55:44;20.90;81.90
42097;DHT22;27754;45.414;11.084;2022-09-09T02:01:22;20.90;81.60
42097;DHT22;27754;45.414;11.084;2022-09-09T02:03:53;20.90;81.30
42097;DHT22;27754;45.414;11.084;2022-09-09T02:06:40;21.10;80.90
42097;DHT22;27754;45.414;11.084;2022-09-09T02:09:19;21.10;80.60
42097;DHT22;27754;45.414;11.084;2022-09-09T02:11:55;21.20;80.50
42097;DHT22;27754;45.414;11.084;2022-09-09T02:14:39;21.30;80.40
42097;DHT22;27754;45.414;11.084;2022-09-09T02:17:10;21.30;80.30
42097;DHT22;27754;45.414;11.084;2022-09-09T02:20:10;21.40;80.20
42097;DHT22;27754;45.414;11.084;2022-09-09T02:22:45;21.40;80.20
42097;DHT22;27754;45.414;11.084;2022-09-09T02:25:18;21.40;80.40
42097;DHT22;27754;45.414;11.084;2022-09-09T02:27:50;21.50;80.30
42097;DHT22;27754;45.414;11.084;2022-09-09T02:30:19;21.50;80.20
42097;DHT22;27754;45.414;11.084;2022-09-09T02:32:56;21.50;80.20
42097;DHT22;27754;45.414;11.084;2022-09-09T02:35:43;21.60;80.30
42097;DHT22;27754;45.414;11.084;2022-09-09T02:38:13;21.60;80.50
42097;DHT22;27754;45.414;11.084;2022-09-09T02:40:50;21.60;80.50
42097;DHT22;27754;45.414;11.084;2022-09-09T02:43:16;21.60;80.60
42097;DHT22;27754;45.414;11.084;2022-09-09T02:48:58;21.60;80.90
42097;DHT22;27754;45.414;11.084;2022-09-09T02:51:55;21.60;81.10
42097;DHT22;27754;45.414;11.084;2022-09-09T02:54:33;21.60;81.20
42097;DHT22;27754;45.414;11.084;2022-09-09T02:57:14;21.60;81.30
42097;DHT22;27754;45.414;11.084;2022-09-09T02:59:48;21.60;81.40
42097;DHT22;27754;45.414;11.084;2022-09-09T03:02:16;21.60;81.40
42097;DHT22;27754;45.414;11.084;2022-09-09T03:04:50;21.60;81.50
42097;DHT22;27754;45.414;11.084;2022-09-09T03:07:19;21.60;81.40
42097;DHT22;27754;45.414;11.084;2022-09-09T03:09:48;21.70;81.30
42097;DHT22;27754;45.414;11.084;2022-09-09T03:12:16;21.70;81.30
42097;DHT22;27754;45.414;11.084;2022-09-09T03:14:43;21.70;81.30
42097;DHT22;27754;45.414;11.084;2022-09-09T03:17:12;21.70;81.30
42097;DHT22;27754;45.414;11.084;2022-09-09T03:19:46;21.80;81.40
42097;DHT22;27754;45.414;11.084;2022-09-09T03:22:16;21.80;81.40
42097;DHT22;27754;45.414;11.084;2022-09-09T03:24:44;21.80;81.60
42097;DHT22;27754;45.414;11.084;2022-09-09T03:27:11;21.90;81.70
42097;DHT22;27754;45.414;11.084;2022-09-09T03:29:39;21.90;81.70
42097;DHT22;27754;45.414;11.084;2022-09-09T03:32:09;21.90;81.90
42097;DHT22;27754;45.414;11.084;2022-09-09T03:34:38;21.90;81.90
42097;DHT22;27754;45.414;11.084;2022-09-09T03:37:10;21.90;82.10
42097;DHT22;27754;45.414;11.084;2022-09-09T03:39:38;21.90;82.20
42097;DHT22;27754;45.414;11.084;2022-09-09T03:42:07;21.90;82.30
42097;DHT22;27754;45.414;11.084;2022-09-09T03:44:34;22.00;82.30
42097;DHT22;27754;45.414;11.084;2022-09-09T03:47:00;22.00;82.30
42097;DHT22;27754;45.414;11.084;2022-09-09T03:49:28;22.00;82.20
42097;DHT22;27754;45.414;11.084;2022-09-09T03:51:56;22.00;82.40
42097;DHT22;27754;45.414;11.084;2022-09-09T03:54:24;21.90;82.60
42097;DHT22;27754;45.414;11.084;2022-09-09T03:56:51;21.90;82.70
42097;DHT22;27754;45.414;11.084;2022-09-09T03:59:19;21.90;82.70
42097;DHT22;27754;45.414;11.084;2022-09-09T04:01:47;21.90;82.90
42097;DHT22;27754;45.414;11.084;2022-09-09T04:04:15;21.90;83.00
42097;DHT22;27754;45.414;11.084;2022-09-09T04:06:42;21.90;83.00
42097;DHT22;27754;45.414;11.084;2022-09-09T04:09:09;21.90;83.00
42097;DHT22;27754;45.414;11.084;2022-09-09T04:11:36;21.90;83.00
42097;DHT22;27754;45.414;11.084;2022-09-09T04:14:03;21.90;83.00
42097;DHT22;27754;45.414;11.084;2022-09-09T04:16:33;21.90;83.00
42097;DHT22;27754;45.414;11.084;2022-09-09T04:19:02;21.90;82.80
42097;DHT22;27754;45.414;11.084;2022-09-09T04:21:30;21.90;82.90
42097;DHT22;27754;45.414;11.084;2022-09-09T04:24:00;21.90;82.90
42097;DHT22;27754;45.414;11.084;2022-09-09T04:26:27;21.90;82.80
42097;DHT22;27754;45.414;11.084;2022-09-09T04:28:54;21.90;82.90
42097;DHT22;27754;45.414;11.084;2022-09-09T04:31:23;21.90;82.90
42097;DHT22;27754;45.414;11.084;2022-09-09T04:33:53;21.90;82.90
42097;DHT22;27754;45.414;11.084;2022-09-09T04:36:21;21.90;82.90
42097;DHT22;27754;45.414;11.084;2022-09-09T04:38:51;21.90;82.90
42097;DHT22;27754;45.414;11.084;2022-09-09T04:41:17;21.90;82.90
42097;DHT22;27754;45.414;11.084;2022-09-09T04:43:49;21.90;82.90
42097;DHT22;27754;45.414;11.084;2022-09-09T04:46:16;21.90;82.90
42097;DHT22;27754;45.414;11.084;2022-09-09T04:48:44;21.90;82.80
42097;DHT22;27754;45.414;11.084;2022-09-09T04:51:13;21.90;82.70
42097;DHT22;27754;45.414;11.084;2022-09-09T04:53:42;22.00;82.70
42097;DHT22;27754;45.414;11.084;2022-09-09T04:56:13;22.00;82.80
42097;DHT22;27754;45.414;11.084;2022-09-09T04:58:52;22.00;82.80
42097;DHT22;27754;45.414;11.084;2022-09-09T05:01:22;22.10;82.60
42097;DHT22;27754;45.414;11.084;2022-09-09T05:03:52;22.10;82.40
42097;DHT22;27754;45.414;11.084;2022-09-09T05:06:22;22.10;82.30
42097;DHT22;27754;45.414;11.084;2022-09-09T05:08:54;22.20;82.10
42097;DHT22;27754;45.414;11.084;2022-09-09T05:11:26;22.30;82.00
42097;DHT22;27754;45.414;11.084;2022-09-09T05:13:59;22.30;81.60
42097;DHT22;27754;45.414;11.084;2022-09-09T05:16:27;22.40;81.70
42097;DHT22;27754;45.414;11.084;2022-09-09T05:18:55;22.50;81.40
42097;DHT22;27754;45.414;11.084;2022-09-09T05:21:24;22.50;81.30
42097;DHT22;27754;45.414;11.084;2022-09-09T05:23:54;22.60;81.00
42097;DHT22;27754;45.414;11.084;2022-09-09T05:26:22;22.60;80.80
42097;DHT22;27754;45.414;11.084;2022-09-09T05:28:51;22.60;80.90
42097;DHT22;27754;45.414;11.084;2022-09-09T05:31:19;22.60;80.80
42097;DHT22;27754;45.414;11.084;2022-09-09T05:33:49;22.70;80.50
42097;DHT22;27754;45.414;11.084;2022-09-09T05:36:19;22.80;80.60
42097;DHT22;27754;45.414;11.084;2022-09-09T05:38:49;22.80;80.40
42097;DHT22;27754;45.414;11.084;2022-09-09T05:41:18;22.90;80.00
42097;DHT22;27754;45.414;11.084;2022-09-09T05:43:46;22.90;79.70
42097;DHT22;27754;45.414;11.084;2022-09-09T05:46:20;23.00;79.50
42097;DHT22;27754;45.414;11.084;2022-09-09T05:48:51;23.00;79.10
42097;DHT22;27754;45.414;11.084;2022-09-09T05:51:25;23.00;78.90
42097;DHT22;27754;45.414;11.084;2022-09-09T05:53:55;23.20;78.70
42097;DHT22;27754;45.414;11.084;2022-09-09T05:56:28;23.30;78.10
42097;DHT22;27754;45.414;11.084;2022-09-09T05:58:58;23.30;77.80
42097;DHT22;27754;45.414;11.084;2022-09-09T06:01:30;23.40;78.70
42097;DHT22;27754;45.414;11.084;2022-09-09T06:03:58;23.60;78.60
42097;DHT22;27754;45.414;11.084;2022-09-09T06:06:36;23.70;77.60
42097;DHT22;27754;45.414;11.084;2022-09-09T06:09:09;23.80;77.60
42097;DHT22;27754;45.414;11.084;2022-09-09T06:11:40;24.00;76.60
42097;DHT22;27754;45.414;11.084;2022-09-09T06:14:07;24.20;76.40
42097;DHT22;27754;45.414;11.084;2022-09-09T06:16:37;24.40;76.40
42097;DHT22;27754;45.414;11.084;2022-09-09T06:19:16;24.60;75.90
42097;DHT22;27754;45.414;11.084;2022-09-09T06:21:44;24.80;74.40
42097;DHT22;27754;45.414;11.084;2022-09-09T06:24:12;24.90;72.90
42097;DHT22;27754;45.414;11.084;2022-09-09T06:26:41;24.90;72.00
42097;DHT22;27754;45.414;11.084;2022-09-09T06:29:10;24.90;71.30
42097;DHT22;27754;45.414;11.084;2022-09-09T06:31:38;25.00;71.20
42097;DHT22;27754;45.414;11.084;2022-09-09T06:34:12;25.10;71.60
42097;DHT22;27754;45.414;11.084;2022-09-09T06:36:44;25.20;70.70
42097;DHT22;27754;45.414;11.084;2022-09-09T06:39:12;25.30;70.60
42097;DHT22;27754;45.414;11.084;2022-09-09T06:41:41;25.40;69.70
42097;DHT22;27754;45.414;11.084;2022-09-09T06:44:28;25.30;69.90
42097;DHT22;27754;45.414;11.084;2022-09-09T06:47:03;25.30;69.70
42097;DHT22;27754;45.414;11.084;2022-09-09T06:49:31;25.40;69.90
42097;DHT22;27754;45.414;11.084;2022-09-09T06:52:00;25.60;68.90
42097;DHT22;27754;45.414;11.084;2022-09-09T06:54:28;25.70;69.00
42097;DHT22;27754;45.414;11.084;2022-09-09T06:56:55;26.00;68.20
42097;DHT22;27754;45.414;11.084;2022-09-09T06:59:23;25.70;68.10
42097;DHT22;27754;45.414;11.084;2022-09-09T07:01:52;25.60;68.60
42097;DHT22;27754;45.414;11.084;2022-09-09T07:04:22;25.50;68.90
42097;DHT22;27754;45.414;11.084;2022-09-09T07:06:49;25.70;68.40
42097;DHT22;27754;45.414;11.084;2022-09-09T07:09:21;25.60;68.80
42097;DHT22;27754;45.414;11.084;2022-09-09T07:11:51;25.50;69.00
42097;DHT22;27754;45.414;11.084;2022-09-09T07:14:21;25.60;69.00
42097;DHT22;27754;45.414;11.084;2022-09-09T07:16:56;25.50;69.30
42097;DHT22;27754;45.414;11.084;2022-09-09T07:19:27;25.50;69.90
42097;DHT22;27754;45.414;11.084;2022-09-09T07:21:55;25.60;69.60
42097;DHT22;27754;45.414;11.084;2022-09-09T07:24:24;25.70;70.00
42097;DHT22;27754;45.414;11.084;2022-09-09T07:26:51;25.60;69.80
42097;DHT22;27754;45.414;11.084;2022-09-09T07:29:19;25.70;69.90
42097;DHT22;27754;45.414;11.084;2022-09-09T07:31:48;25.80;69.80
42097;DHT22;27754;45.414;11.084;2022-09-09T07:34:21;25.80;69.70
42097;DHT22;27754;45.414;11.084;2022-09-09T07:36:48;25.90;69.60
42097;DHT22;27754;45.414;11.084;2022-09-09T07:39:17;26.00;69.50
42097;DHT22;27754;45.414;11.084;2022-09-09T07:41:51;25.80;69.90
42097;DHT22;27754;45.414;11.084;2022-09-09T07:44:23;26.10;69.50
42097;DHT22;27754;45.414;11.084;2022-09-09T07:47:05;26.30;68.40
42097;DHT22;27754;45.414;11.084;2022-09-09T07:49:40;26.20;68.50
42097;DHT22;27754;45.414;11.084;2022-09-09T07:52:08;26.10;69.10
42097;DHT22;27754;45.414;11.084;2022-09-09T07:54:38;26.10;68.70
42097;DHT22;27754;45.414;11.084;2022-09-09T07:57:05;26.20;69.00
42097;DHT22;27754;45.414;11.084;2022-09-09T07:59:35;26.30;68.40
42097;DHT22;27754;45.414;11.084;2022-09-09T08:02:02;26.60;67.90
42097;DHT22;27754;45.414;11.084;2022-09-09T08:04:32;26.70;67.50
42097;DHT22;27754;45.414;11.084;2022-09-09T08:07:00;26.50;68.00
42097;DHT22;27754;45.414;11.084;2022-09-09T08:09:31;26.40;68.20
42097;DHT22;27754;45.414;11.084;2022-09-09T08:12:08;26.30;68.70
42097;DHT22;27754;45.414;11.084;2022-09-09T08:14:36;26.30;68.70
42097;DHT22;27754;45.414;11.084;2022-09-09T08:17:03;26.50;68.40
42097;DHT22;27754;45.414;11.084;2022-09-09T08:19:32;26.70;68.10
42097;DHT22;27754;45.414;11.084;2022-09-09T08:22:06;26.60;67.10
42097;DHT22;27754;45.414;11.084;2022-09-09T08:24:36;26.70;67.20
42097;DHT22;27754;45.414;11.084;2022-09-09T08:27:03;26.70;67.80
42097;DHT22;27754;45.414;11.084;2022-09-09T08:29:30;26.90;66.90
42097;DHT22;27754;45.414;11.084;2022-09-09T08:31:59;26.90;65.70
42097;DHT22;27754;45.414;11.084;2022-09-09T08:34:27;26.90;66.60
42097;DHT22;27754;45.414;11.084;2022-09-09T08:36:57;27.10;66.00
42097;DHT22;27754;45.414;11.084;2022-09-09T08:39:33;27.30;65.50
42097;DHT22;27754;45.414;11.084;2022-09-09T08:42:38;27.30;65.00
42097;DHT22;27754;45.414;11.084;2022-09-09T08:47:58;26.90;65.60
42097;DHT22;27754;45.414;11.084;2022-09-09T08:50:35;26.80;65.40
42097;DHT22;27754;45.414;11.084;2022-09-09T08:53:21;26.70;66.40
42097;DHT22;27754;45.414;11.084;2022-09-09T08:55:56;26.80;66.50
42097;DHT22;27754;45.414;11.084;2022-09-09T08:58:49;26.90;66.60
42097;DHT22;27754;45.414;11.084;2022-09-09T09:01:42;26.90;65.60
42097;DHT22;27754;45.414;11.084;2022-09-09T09:07:21;27.20;65.10
42097;DHT22;27754;45.414;11.084;2022-09-09T09:10:03;27.20;65.70
42097;DHT22;27754;45.414;11.084;2022-09-09T09:12:50;27.30;65.00
42097;DHT22;27754;45.414;11.084;2022-09-09T09:15:25;27.50;65.40
42097;DHT22;27754;45.414;11.084;2022-09-09T09:17:58;27.60;65.60
42097;DHT22;27754;45.414;11.084;2022-09-09T09:23:24;27.60;65.10
42097;DHT22;27754;45.414;11.084;2022-09-09T09:26:00;27.70;65.00
42097;DHT22;27754;45.414;11.084;2022-09-09T09:28:30;27.80;64.20
42097;DHT22;27754;45.414;11.084;2022-09-09T09:31:10;27.80;64.80
42097;DHT22;27754;45.414;11.084;2022-09-09T09:36:08;28.20;63.90
42097;DHT22;27754;45.414;11.084;2022-09-09T09:38:38;28.40;63.30
42097;DHT22;27754;45.414;11.084;2022-09-09T09:41:30;28.50;62.60
42097;DHT22;27754;45.414;11.084;2022-09-09T09:43:58;28.40;62.70
42097;DHT22;27754;45.414;11.084;2022-09-09T09:46:28;28.30;62.80
42097;DHT22;27754;45.414;11.084;2022-09-09T09:49:09;28.50;62.50
42097;DHT22;27754;45.414;11.084;2022-09-09T09:51:37;28.70;62.20
42097;DHT22;27754;45.414;11.084;2022-09-09T09:54:17;28.80;61.70
42097;DHT22;27754;45.414;11.084;2022-09-09T09:56:51;29.30;61.60
42097;DHT22;27754;45.414;11.084;2022-09-09T09:59:36;29.20;61.80
42097;DHT22;27754;45.414;11.084;2022-09-09T10:02:24;29.30;61.30
42097;DHT22;27754;45.414;11.084;2022-09-09T10:07:44;29.30;60.70
42097;DHT22;27754;45.414;11.084;2022-09-09T10:10:18;29.10;60.50
42097;DHT22;27754;45.414;11.084;2022-09-09T10:15:36;28.90;61.20
42097;DHT22;27754;45.414;11.084;2022-09-09T10:24:44;24.70;72.20
42097;DHT22;27754;45.414;11.084;2022-09-09T10:30:31;21.60;84.60
42097;DHT22;27754;45.414;11.084;2022-09-09T10:33:12;21.20;83.50
42097;DHT22;27754;45.414;11.084;2022-09-09T10:55:44;20.50;85.50
42097;DHT22;27754;45.414;11.084;2022-09-09T10:58:25;20.30;85.10
42097;DHT22;27754;45.414;11.084;2022-09-09T11:00:57;20.30;84.60
42097;DHT22;27754;45.414;11.084;2022-09-09T11:03:29;20.30;84.40
42097;DHT22;27754;45.414;11.084;2022-09-09T11:06:05;20.20;85.30
42097;DHT22;27754;45.414;11.084;2022-09-09T11:08:36;20.40;85.20
42097;DHT22;27754;45.414;11.084;2022-09-09T11:11:27;20.40;84.30
42097;DHT22;27754;45.414;11.084;2022-09-09T11:14:19;20.60;83.10
42097;DHT22;27754;45.414;11.084;2022-09-09T11:16:52;20.80;82.90
42097;DHT22;27754;45.414;11.084;2022-09-09T11:19:36;20.70;84.90
42097;DHT22;27754;45.414;11.084;2022-09-09T11:22:17;20.70;82.80
42097;DHT22;27754;45.414;11.084;2022-09-09T11:24:52;20.70;82.90
42097;DHT22;27754;45.414;11.084;2022-09-09T11:40:45;21.40;77.70
42097;DHT22;27754;45.414;11.084;2022-09-09T11:46:09;21.90;78.80
42097;DHT22;27754;45.414;11.084;2022-09-09T11:48:42;22.10;75.80
42097;DHT22;27754;45.414;11.084;2022-09-09T11:53:57;22.80;77.80
42097;DHT22;27754;45.414;11.084;2022-09-09T11:56:34;23.10;77.60
42097;DHT22;27754;45.414;11.084;2022-09-09T11:59:21;23.50;77.50
42097;DHT22;27754;45.414;11.084;2022-09-09T12:02:00;23.80;74.80
42097;DHT22;27754;45.414;11.084;2022-09-09T12:04:37;24.10;73.30
42097;DHT22;27754;45.414;11.084;2022-09-09T12:07:37;24.30;71.60
42097;DHT22;27754;45.414;11.084;2022-09-09T12:10:19;24.20;71.10
42097;DHT22;27754;45.414;11.084;2022-09-09T12:12:47;24.30;72.00
42097;DHT22;27754;45.414;11.084;2022-09-09T12:15:21;24.30;71.10
42097;DHT22;27754;45.414;11.084;2022-09-09T12:17:51;24.50;71.40
42097;DHT22;27754;45.414;11.084;2022-09-09T12:20:33;24.70;70.00
42097;DHT22;27754;45.414;11.084;2022-09-09T12:23:29;24.80;69.30
42097;DHT22;27754;45.414;11.084;2022-09-09T12:28:56;25.10;70.20
42097;DHT22;27754;45.414;11.084;2022-09-09T12:31:56;25.00;66.60
42097;DHT22;27754;45.414;11.084;2022-09-09T12:34:40;25.30;67.30
42097;DHT22;27754;45.414;11.084;2022-09-09T12:37:37;25.40;66.80
42097;DHT22;27754;45.414;11.084;2022-09-09T12:40:31;25.50;65.50
42097;DHT22;27754;45.414;11.084;2022-09-09T12:43:15;25.70;64.70
42097;DHT22;27754;45.414;11.084;2022-09-09T12:45:43;25.80;65.80
42097;DHT22;27754;45.414;11.084;2022-09-09T12:48:10;25.90;66.60
42097;DHT22;27754;45.414;11.084;2022-09-09T12:50:52;26.10;64.80
42097;DHT22;27754;45.414;11.084;2022-09-09T12:53:25;26.10;57.50
42097;DHT22;27754;45.414;11.084;2022-09-09T12:55:57;26.10;62.50
42097;DHT22;27754;45.414;11.084;2022-09-09T12:58:25;26.30;63.50
42097;DHT22;27754;45.414;11.084;2022-09-09T13:00:56;26.30;61.50
42097;DHT22;27754;45.414;11.084;2022-09-09T13:03:24;26.40;61.10
42097;DHT22;27754;45.414;11.084;2022-09-09T13:05:58;26.50;60.20
42097;DHT22;27754;45.414;11.084;2022-09-09T13:08:26;26.60;56.70
42097;DHT22;27754;45.414;11.084;2022-09-09T13:11:06;26.70;56.50
42097;DHT22;27754;45.414;11.084;2022-09-09T13:13:41;26.80;55.30
42097;DHT22;27754;45.414;11.084;2022-09-09T13:16:27;26.80;53.80
42097;DHT22;27754;45.414;11.084;2022-09-09T13:19:01;26.90;54.00
42097;DHT22;27754;45.414;11.084;2022-09-09T13:21:37;27.00;55.30
42097;DHT22;27754;45.414;11.084;2022-09-09T13:24:06;27.10;55.20
42097;DHT22;27754;45.414;11.084;2022-09-09T13:26:34;27.10;54.70
42097;DHT22;27754;45.414;11.084;2022-09-09T13:29:18;27.30;54.20
42097;DHT22;27754;45.414;11.084;2022-09-09T13:31:45;27.20;53.60
42097;DHT22;27754;45.414;11.084;2022-09-09T13:34:26;27.10;57.30
42097;DHT22;27754;45.414;11.084;2022-09-09T13:37:00;27.00;61.90
42097;DHT22;27754;45.414;11.084;2022-09-09T13:39:29;26.70;64.10
42097;DHT22;27754;45.414;11.084;2022-09-09T13:41:56;26.70;66.10
42097;DHT22;27754;45.414;11.084;2022-09-09T13:44:30;26.40;66.10
42097;DHT22;27754;45.414;11.084;2022-09-09T13:47:05;26.30;65.80
42097;DHT22;27754;45.414;11.084;2022-09-09T13:49:36;26.00;66.90
42097;DHT22;27754;45.414;11.084;2022-09-09T13:54:33;25.90;66.10
42097;DHT22;27754;45.414;11.084;2022-09-09T13:56:59;25.90;66.00
42097;DHT22;27754;45.414;11.084;2022-09-09T13:59:28;26.00;65.90
42097;DHT22;27754;45.414;11.084;2022-09-09T14:02:15;26.00;65.70
42097;DHT22;27754;45.414;11.084;2022-09-09T14:04:46;26.10;65.60
42097;DHT22;27754;45.414;11.084;2022-09-09T14:07:15;26.30;65.50
42097;DHT22;27754;45.414;11.084;2022-09-09T14:09:43;26.20;64.20
42097;DHT22;27754;45.414;11.084;2022-09-09T14:12:11;26.30;62.90
42097;DHT22;27754;45.414;11.084;2022-09-09T14:14:38;26.30;63.70
42097;DHT22;27754;45.414;11.084;2022-09-09T14:17:05;26.30;63.90
42097;DHT22;27754;45.414;11.084;2022-09-09T14:19:34;26.10;64.30
42097;DHT22;27754;45.414;11.084;2022-09-09T14:22:00;26.10;63.30
42097;DHT22;27754;45.414;11.084;2022-09-09T14:24:27;26.00;63.20
42097;DHT22;27754;45.414;11.084;2022-09-09T14:26:54;26.10;62.50
42097;DHT22;27754;45.414;11.084;2022-09-09T14:29:21;26.10;62.30
42097;DHT22;27754;45.414;11.084;2022-09-09T14:31:48;26.10;61.90
42097;DHT22;27754;45.414;11.084;2022-09-09T14:34:15;26.00;62.10
42097;DHT22;27754;45.414;11.084;2022-09-09T14:36:42;26.10;62.50
42097;DHT22;27754;45.414;11.084;2022-09-09T14:39:11;26.10;60.50
42097;DHT22;27754;45.414;11.084;2022-09-09T14:41:38;26.30;60.60
42097;DHT22;27754;45.414;11.084;2022-09-09T14:44:05;26.30;60.20
42097;DHT22;27754;45.414;11.084;2022-09-09T14:46:32;26.30;60.70
42097;DHT22;27754;45.414;11.084;2022-09-09T14:49:00;26.50;60.20
42097;DHT22;27754;45.414;11.084;2022-09-09T14:51:27;26.60;59.90
42097;DHT22;27754;45.414;11.084;2022-09-09T14:53:56;26.50;59.90
42097;DHT22;27754;45.414;11.084;2022-09-09T14:56:26;26.60;59.40
42097;DHT22;27754;45.414;11.084;2022-09-09T14:58:55;26.40;59.60
42097;DHT22;27754;45.414;11.084;2022-09-09T15:01:24;26.50;60.20
42097;DHT22;27754;45.414;11.084;2022-09-09T15:03:58;26.70;60.10
42097;DHT22;27754;45.414;11.084;2022-09-09T15:06:28;26.70;59.90
42097;DHT22;27754;45.414;11.084;2022-09-09T15:08:56;26.50;59.80
42097;DHT22;27754;45.414;11.084;2022-09-09T15:11:29;26.50;60.50
42097;DHT22;27754;45.414;11.084;2022-09-09T15:14:01;26.60;59.30
42097;DHT22;27754;45.414;11.084;2022-09-09T15:16:28;26.30;58.30
42097;DHT22;27754;45.414;11.084;2022-09-09T15:18:57;26.20;60.50
42097;DHT22;27754;45.414;11.084;2022-09-09T15:21:29;26.20;62.10
42097;DHT22;27754;45.414;11.084;2022-09-09T15:23:57;26.10;61.80
42097;DHT22;27754;45.414;11.084;2022-09-09T15:26:25;26.20;62.40
42097;DHT22;27754;45.414;11.084;2022-09-09T15:28:54;26.20;62.50
42097;DHT22;27754;45.414;11.084;2022-09-09T15:31:23;26.10;62.70
42097;DHT22;27754;45.414;11.084;2022-09-09T15:33:52;26.10;63.30
42097;DHT22;27754;45.414;11.084;2022-09-09T15:36:23;26.00;63.90
42097;DHT22;27754;45.414;11.084;2022-09-09T15:38:51;26.00;63.50
42097;DHT22;27754;45.414;11.084;2022-09-09T15:41:20;25.90;62.60
42097;DHT22;27754;45.414;11.084;2022-09-09T15:43:53;25.90;63.50
42097;DHT22;27754;45.414;11.084;2022-09-09T15:48:51;25.80;64.40
42097;DHT22;27754;45.414;11.084;2022-09-09T15:51:20;25.70;64.00
42097;DHT22;27754;45.414;11.084;2022-09-09T15:54:07;25.60;64.80
42097;DHT22;27754;45.414;11.084;2022-09-09T15:56:34;25.50;65.50
42097;DHT22;27754;45.414;11.084;2022-09-09T15:59:02;25.50;65.40
42097;DHT22;27754;45.414;11.084;2022-09-09T16:01:32;25.30;65.50
42097;DHT22;27754;45.414;11.084;2022-09-09T16:04:00;25.30;66.30
42097;DHT22;27754;45.414;11.084;2022-09-09T16:06:28;25.40;66.30
42097;DHT22;27754;45.414;11.084;2022-09-09T16:08:57;25.50;66.10
42097;DHT22;27754;45.414;11.084;2022-09-09T16:11:30;25.50;66.50
42097;DHT22;27754;45.414;11.084;2022-09-09T16:13:58;25.40;66.30
42097;DHT22;27754;45.414;11.084;2022-09-09T16:16:27;25.30;65.80
42097;DHT22;27754;45.414;11.084;2022-09-09T16:18:59;25.30;66.20
42097;DHT22;27754;45.414;11.084;2022-09-09T16:21:30;25.30;66.10
42097;DHT22;27754;45.414;11.084;2022-09-09T16:23:59;25.30;66.20
42097;DHT22;27754;45.414;11.084;2022-09-09T16:26:27;25.20;66.30
42097;DHT22;27754;45.414;11.084;2022-09-09T16:28:55;25.10;66.20
42097;DHT22;27754;45.414;11.084;2022-09-09T16:31:23;25.10;65.90
42097;DHT22;27754;45.414;11.084;2022-09-09T16:33:51;25.00;65.80
42097;DHT22;27754;45.414;11.084;2022-09-09T16:36:20;25.00;65.70
42097;DHT22;27754;45.414;11.084;2022-09-09T16:38:48;24.90;65.60
42097;DHT22;27754;45.414;11.084;2022-09-09T16:41:14;24.90;65.90
42097;DHT22;27754;45.414;11.084;2022-09-09T16:43:41;24.80;66.00
42097;DHT22;27754;45.414;11.084;2022-09-09T16:46:17;24.80;66.40
42097;DHT22;27754;45.414;11.084;2022-09-09T16:48:46;24.80;66.90
42097;DHT22;27754;45.414;11.084;2022-09-09T16:51:15;24.80;66.80
42097;DHT22;27754;45.414;11.084;2022-09-09T16:53:43;24.70;67.10
42097;DHT22;27754;45.414;11.084;2022-09-09T16:56:13;24.60;67.50
42097;DHT22;27754;45.414;11.084;2022-09-09T16:58:40;24.60;67.20
42097;DHT22;27754;45.414;11.084;2022-09-09T17:01:09;24.60;66.90
42097;DHT22;27754;45.414;11.084;2022-09-09T17:03:41;24.60;67.60
42097;DHT22;27754;45.414;11.084;2022-09-09T17:06:12;24.50;67.40
42097;DHT22;27754;45.414;11.084;2022-09-09T17:08:40;24.40;67.20
42097;DHT22;27754;45.414;11.084;2022-09-09T17:11:17;24.40;67.00
42097;DHT22;27754;45.414;11.084;2022-09-09T17:13:46;24.30;66.10
42097;DHT22;27754;45.414;11.084;2022-09-09T17:16:15;24.30;66.90
42097;DHT22;27754;45.414;11.084;2022-09-09T17:18:43;24.30;67.30
42097;DHT22;27754;45.414;11.084;2022-09-09T17:21:15;24.20;67.60
42097;DHT22;27754;45.414;11.084;2022-09-09T17:23:43;24.20;67.90
42097;DHT22;27754;45.414;11.084;2022-09-09T17:26:13;24.10;68.30
42097;DHT22;27754;45.414;11.084;2022-09-09T17:28:41;24.00;68.70
42097;DHT22;27754;45.414;11.084;2022-09-09T17:31:10;23.90;69.20
42097;DHT22;27754;45.414;11.084;2022-09-09T17:33:39;23.90;69.40